createdAt,value
2018-05-03T00:02:22.321Z,18.80
2018-05-03T00:06:25.058Z,17.47
2018-05-03T00:10:27.882Z,22.50
2018-05-03T00:14:31.414Z,18.37
2018-05-03T00:18:34.168Z,18.10
2018-05-03T00:22:36.914Z,18.33
2018-05-03T00:26:39.662Z,20.27
2018-05-03T00:30:42.498Z,21.77
2018-05-03T00:34:46.242Z,14.20
2018-05-03T00:38:49.052Z,13.60
2018-05-03T00:42:51.753Z,22.37
2018-05-03T00:46:54.516Z,15.97
2018-05-03T00:50:57.254Z,16.63
2018-05-03T00:55:03.264Z,22.90
2018-05-03T00:59:06.051Z,17.53
2018-05-03T01:03:09.633Z,16.57
2018-05-03T01:07:12.333Z,17.03
2018-05-03T01:11:15.063Z,16.83
2018-05-03T01:15:18.570Z,21.07
2018-05-03T01:19:21.447Z,20.03
2018-05-03T01:23:24.177Z,25.07
2018-05-03T01:27:27.787Z,23.00
2018-05-03T01:31:30.533Z,14.73
2018-05-03T01:35:45.299Z,18.17
2018-05-03T01:39:48.107Z,14.50
2018-05-03T01:43:51.782Z,13.57
2018-05-03T01:47:54.589Z,19.10
2018-05-03T01:51:57.365Z,23.60
2018-05-03T01:56:04.737Z,20.57
2018-05-03T02:00:11.466Z,22.90
2018-05-03T02:04:14.214Z,18.20
2018-05-03T02:08:17.078Z,21.40
2018-05-03T02:12:19.786Z,20.37
2018-05-03T02:16:24.589Z,16.30
2018-05-03T02:20:27.345Z,20.90
2018-05-03T02:24:30.145Z,19.07
2018-05-03T02:28:32.897Z,19.70
2018-05-03T02:32:36.700Z,23.50
2018-05-03T02:36:40.280Z,19.40
2018-05-03T02:40:43.084Z,24.80
2018-05-03T02:44:45.833Z,18.17
2018-05-03T02:48:48.653Z,22.40
2018-05-03T02:52:51.381Z,15.20
2018-05-03T02:57:18.157Z,16.37
2018-05-03T03:01:39.814Z,18.27
2018-05-03T03:05:54.502Z,20.07
2018-05-03T03:14:58.484Z,53.20
2018-05-03T03:19:18.935Z,42.90
2018-05-03T03:23:39.442Z,43.33
2018-05-03T03:28:00.057Z,26.90
2018-05-03T03:32:15.466Z,39.90
2018-05-03T03:36:30.847Z,18.73
2018-05-03T03:40:45.499Z,21.40
2018-05-03T03:44:48.225Z,18.60
2018-05-03T03:48:54.670Z,22.93
2018-05-03T03:52:57.421Z,18.63
2018-05-03T03:57:03.514Z,24.00
2018-05-03T04:01:06.424Z,16.97
2018-05-03T04:05:09.379Z,14.53
2018-05-03T04:09:12.218Z,23.73
2018-05-03T04:13:30.151Z,20.37
2018-05-03T04:17:56.510Z,15.90
2018-05-03T04:22:13.294Z,26.93
2018-05-03T04:26:16.271Z,17.80
2018-05-03T04:30:19.074Z,13.27
2018-05-03T04:34:21.889Z,16.80
2018-05-03T04:38:25.414Z,11.63
2018-05-03T04:42:28.145Z,10.90
2018-05-03T04:46:31.634Z,10.17
2018-05-03T04:50:42.679Z,14.77
2018-05-03T04:54:45.660Z,11.40
2018-05-03T04:58:48.721Z,9.63
2018-05-03T05:02:51.459Z,14.20
2018-05-03T05:06:54.301Z,10.70
2018-05-03T05:10:57.042Z,10.13
2018-05-03T05:14:59.778Z,10.23
2018-05-03T05:19:02.518Z,11.30
2018-05-03T05:23:05.233Z,14.57
2018-05-03T05:27:08.017Z,10.80
2018-05-03T05:31:10.772Z,10.20
2018-05-03T05:35:13.504Z,13.33
2018-05-03T05:39:16.434Z,12.07
2018-05-03T05:43:19.420Z,13.40
2018-05-03T05:47:22.973Z,12.03
2018-05-03T05:51:25.716Z,10.97
2018-05-03T05:55:28.469Z,11.00
2018-05-03T05:59:31.410Z,9.70
2018-05-03T06:03:34.275Z,11.10
2018-05-03T06:07:37.023Z,14.40
2018-05-03T06:11:40.496Z,15.30
2018-05-03T06:15:43.283Z,16.50
2018-05-03T06:19:46.005Z,15.53
2018-05-03T06:23:50.677Z,10.60
2018-05-03T06:27:54.170Z,11.50
2018-05-03T06:31:56.992Z,10.33
2018-05-03T06:36:00.490Z,8.63
2018-05-03T06:40:03.317Z,10.50
2018-05-03T06:44:07.286Z,5.20
2018-05-03T06:48:10.038Z,6.30
2018-05-03T06:52:13.762Z,8.40
2018-05-03T06:56:16.499Z,8.20
2018-05-03T07:00:19.240Z,7.80
2018-05-03T07:04:22.851Z,7.03
2018-05-03T07:08:25.567Z,8.25
2018-05-03T07:12:28.318Z,7.30
2018-05-03T07:16:31.333Z,8.60
2018-05-03T07:20:34.163Z,13.60
2018-05-03T07:24:36.967Z,6.50
2018-05-03T07:28:39.659Z,5.50
2018-05-03T07:32:42.503Z,8.20
2018-05-03T07:36:45.290Z,5.80
2018-05-03T07:40:48.039Z,8.33
2018-05-03T07:44:50.884Z,5.77
2018-05-03T07:48:53.712Z,6.80
2018-05-03T07:52:57.207Z,4.67
2018-05-03T07:56:59.970Z,5.23
2018-05-03T08:01:03.825Z,5.27
2018-05-03T08:05:07.448Z,7.40
2018-05-03T08:09:11.038Z,7.40
2018-05-03T08:13:14.364Z,6.03
2018-05-03T08:17:18.253Z,5.77
2018-05-03T08:21:21.725Z,6.87
2018-05-03T08:25:26.268Z,4.30
2018-05-03T08:29:31.126Z,4.90
2018-05-03T08:33:36.782Z,5.03
2018-05-03T08:37:44.462Z,4.27
2018-05-03T08:41:47.506Z,4.70
2018-05-03T08:45:50.275Z,4.50
2018-05-03T08:49:53.027Z,5.23
2018-05-03T08:53:55.784Z,4.10
2018-05-03T08:57:59.287Z,6.10
2018-05-03T09:02:02.029Z,5.17
2018-05-03T09:06:04.753Z,5.50
2018-05-03T09:10:08.422Z,4.60
2018-05-03T09:14:11.924Z,4.30
2018-05-03T09:18:15.494Z,6.70
2018-05-03T09:22:19.072Z,4.43
2018-05-03T09:26:22.702Z,4.53
2018-05-03T09:30:25.424Z,4.50
2018-05-03T09:34:28.953Z,5.03
2018-05-03T09:38:31.696Z,4.63
2018-05-03T09:42:35.298Z,6.00
2018-05-03T09:46:38.130Z,9.23
2018-05-03T09:50:40.929Z,6.60
2018-05-03T09:54:43.637Z,4.60
2018-05-03T09:58:46.369Z,4.10
2018-05-03T10:02:49.076Z,4.20
2018-05-03T10:06:51.842Z,3.83
2018-05-03T10:10:54.544Z,8.60
2018-05-03T10:14:57.363Z,4.50
2018-05-03T10:19:00.131Z,5.03
2018-05-03T10:23:02.939Z,3.63
2018-05-03T10:27:05.731Z,5.70
2018-05-03T10:31:08.442Z,4.33
2018-05-03T10:35:11.147Z,3.90
2018-05-03T10:39:13.877Z,3.37
2018-05-03T10:43:17.461Z,6.30
2018-05-03T10:47:20.238Z,3.73
2018-05-03T10:51:22.988Z,5.70
2018-05-03T10:55:26.540Z,3.47
2018-05-03T10:59:31.072Z,5.57
2018-05-03T11:03:33.791Z,4.97
2018-05-03T11:07:36.499Z,4.00
2018-05-03T11:11:39.191Z,5.43
2018-05-03T11:15:41.910Z,6.00
2018-05-03T11:19:45.745Z,4.40
2018-05-03T11:23:49.280Z,5.43
2018-05-03T11:27:51.999Z,4.30
2018-05-03T11:31:54.768Z,6.20
2018-05-03T11:35:58.225Z,6.63
2018-05-03T11:40:01.019Z,6.37
2018-05-03T11:44:04.097Z,4.80
2018-05-03T11:48:06.812Z,7.30
2018-05-03T11:52:09.743Z,3.13
2018-05-03T11:56:12.484Z,5.30
2018-05-03T12:00:16.030Z,6.90
2018-05-03T12:04:19.224Z,4.53
2018-05-03T12:08:21.962Z,6.97
2018-05-03T12:12:24.773Z,8.93
2018-05-03T12:16:28.286Z,3.90
2018-05-03T12:20:31.776Z,4.43
2018-05-03T12:24:34.516Z,7.63
2018-05-03T12:28:37.315Z,7.53
2018-05-03T12:32:40.849Z,4.50
2018-05-03T12:36:43.637Z,8.40
2018-05-03T12:40:46.537Z,6.30
2018-05-03T12:44:49.314Z,5.23
2018-05-03T12:48:52.832Z,8.30
2018-05-03T12:52:56.445Z,4.30
2018-05-03T12:56:59.322Z,7.23
2018-05-03T13:01:02.044Z,5.83
2018-05-03T13:05:05.512Z,6.00
2018-05-03T13:09:08.254Z,8.90
2018-05-03T13:13:11.870Z,7.80
2018-05-03T13:17:15.471Z,8.77
2018-05-03T13:21:18.280Z,7.00
2018-05-03T13:25:22.954Z,9.20
2018-05-03T13:29:25.672Z,10.00
2018-05-03T13:33:29.371Z,5.73
2018-05-03T13:37:32.189Z,8.70
2018-05-03T13:41:35.056Z,9.33
2018-05-03T13:45:37.848Z,7.57
2018-05-03T13:49:41.372Z,6.57
2018-05-03T13:53:44.111Z,10.23
2018-05-03T13:57:47.700Z,9.50
2018-05-03T14:01:50.517Z,7.93
2018-05-03T14:05:53.223Z,7.50
2018-05-03T14:09:55.967Z,6.67
2018-05-03T14:13:59.536Z,7.10
2018-05-03T14:18:02.308Z,8.35
2018-05-03T14:22:05.969Z,7.23
2018-05-03T14:26:08.852Z,6.30
2018-05-03T14:30:11.824Z,5.57
2018-05-03T14:34:15.942Z,6.47
2018-05-03T14:38:19.581Z,8.10
2018-05-03T14:42:22.350Z,7.73
2018-05-03T14:46:25.163Z,8.90
2018-05-03T14:50:27.956Z,5.83
2018-05-03T14:54:31.299Z,6.83
2018-05-03T14:58:34.096Z,9.23
2018-05-03T15:02:38.968Z,8.20
2018-05-03T15:06:42.874Z,11.83
2018-05-03T15:10:51.520Z,8.63
2018-05-03T15:14:54.474Z,8.03
2018-05-03T15:18:57.230Z,9.47
2018-05-03T15:23:01.285Z,10.37
2018-05-03T15:27:04.031Z,8.33
2018-05-03T15:31:07.548Z,7.10
2018-05-03T15:35:14.144Z,8.57
2018-05-03T15:39:18.184Z,11.17
2018-05-03T15:43:21.937Z,9.70
2018-05-03T15:47:25.019Z,7.97
2018-05-03T15:51:28.822Z,9.23
2018-05-03T15:55:31.879Z,9.63
2018-05-03T15:59:34.901Z,7.97
2018-05-03T16:03:38.954Z,8.10
2018-05-03T16:07:43.625Z,9.40
2018-05-03T16:11:47.006Z,7.90
2018-05-03T16:15:49.857Z,11.27
2018-05-03T16:19:52.918Z,7.50
2018-05-03T16:23:55.746Z,8.87
2018-05-03T16:28:01.028Z,7.03
2018-05-03T16:32:03.826Z,9.50
2018-05-03T16:36:07.542Z,10.03
2018-05-03T16:40:10.270Z,13.33
2018-05-03T16:44:13.877Z,7.37
2018-05-03T16:48:16.742Z,9.93
2018-05-03T16:52:19.644Z,13.57
2018-05-03T16:56:22.374Z,9.83
2018-05-03T17:00:25.344Z,16.03
2018-05-03T17:04:28.088Z,11.73
2018-05-03T17:08:31.744Z,11.53
2018-05-03T17:12:34.490Z,9.50
2018-05-03T17:16:37.598Z,10.80
2018-05-03T17:20:40.432Z,8.80
2018-05-03T17:24:43.973Z,11.10
2018-05-03T17:28:46.773Z,14.30
2018-05-03T17:32:49.918Z,11.07
2018-05-03T17:36:52.783Z,12.47
2018-05-03T17:40:56.403Z,15.50
2018-05-03T17:44:59.159Z,14.20
2018-05-03T17:49:01.946Z,9.87
2018-05-03T17:53:05.675Z,13.87
2018-05-03T17:57:09.205Z,13.10
2018-05-03T18:01:12.741Z,9.87
2018-05-03T18:05:15.581Z,10.80
2018-05-03T18:09:18.486Z,11.07
2018-05-03T18:13:24.199Z,15.70
2018-05-03T18:17:31.122Z,11.20
2018-05-03T18:21:37.262Z,11.50
2018-05-03T18:25:43.523Z,14.60
2018-05-03T18:29:48.502Z,15.80
2018-05-03T18:33:52.431Z,12.97
2018-05-03T18:37:57.160Z,16.53
2018-05-03T18:42:03.019Z,15.70
2018-05-03T18:46:09.870Z,12.57
2018-05-03T18:50:15.158Z,14.23
2018-05-03T18:54:21.604Z,14.10
2018-05-03T18:58:25.397Z,15.87
2018-05-03T19:02:28.357Z,17.07
2018-05-03T19:06:31.039Z,13.83
2018-05-03T19:10:33.789Z,16.17
2018-05-03T19:14:36.693Z,16.33
2018-05-03T19:18:39.452Z,16.07
2018-05-03T19:22:43.073Z,15.03
2018-05-03T19:26:45.838Z,14.53
2018-05-03T19:30:49.310Z,18.40
2018-05-03T19:34:52.871Z,17.43
2018-05-03T19:38:55.672Z,15.43
2018-05-03T19:42:58.454Z,16.83
2018-05-03T19:47:01.995Z,15.57
2018-05-03T19:51:04.737Z,16.20
2018-05-03T19:55:07.470Z,17.03
2018-05-03T19:59:10.985Z,14.70
2018-05-03T20:03:14.523Z,20.03
2018-05-03T20:07:17.244Z,14.80
2018-05-03T20:11:20.093Z,14.53
2018-05-03T20:15:24.031Z,15.27
2018-05-03T20:19:26.772Z,15.80
2018-05-03T20:23:29.909Z,20.10
2018-05-03T20:27:33.448Z,14.53
2018-05-03T20:31:37.965Z,18.47
2018-05-03T20:35:40.877Z,16.67
2018-05-03T20:39:43.746Z,14.07
2018-05-03T20:43:46.500Z,17.40
2018-05-03T20:47:49.388Z,13.50
2018-05-03T20:51:52.194Z,14.03
2018-05-03T20:55:54.966Z,13.53
2018-05-03T20:59:58.491Z,12.70
2018-05-03T21:04:01.339Z,13.87
2018-05-03T21:08:04.154Z,16.47
2018-05-03T21:12:06.913Z,12.63
2018-05-03T21:16:09.787Z,13.50
2018-05-03T21:20:12.531Z,18.37
2018-05-03T21:24:16.457Z,16.00
2018-05-03T21:28:20.137Z,14.63
2018-05-03T21:32:22.913Z,12.63
2018-05-03T21:36:26.591Z,12.00
2018-05-03T21:40:29.370Z,12.73
2018-05-03T21:44:32.290Z,13.23
2018-05-03T21:48:35.142Z,16.37
2018-05-03T21:52:37.961Z,17.73
2018-05-03T21:56:40.888Z,11.47
2018-05-03T22:00:43.611Z,14.20
2018-05-03T22:04:46.423Z,11.90
2018-05-03T22:08:50.112Z,12.50
2018-05-03T22:12:52.832Z,14.87
2018-05-03T22:16:55.578Z,13.57
2018-05-03T22:20:58.607Z,12.43
2018-05-03T22:25:01.350Z,13.10
2018-05-03T22:29:04.129Z,11.27
2018-05-03T22:33:07.438Z,14.60
2018-05-03T22:37:10.943Z,11.90
2018-05-03T22:41:13.713Z,15.23
2018-05-03T22:45:16.577Z,12.63
2018-05-03T22:49:19.367Z,14.40
2018-05-03T22:53:22.145Z,14.93
2018-05-03T22:57:25.665Z,15.07
2018-05-03T23:01:29.381Z,13.90
2018-05-03T23:05:33.198Z,15.17
2018-05-03T23:09:36.954Z,12.00
2018-05-03T23:13:39.887Z,11.00
2018-05-03T23:17:42.858Z,17.63
2018-05-03T23:21:45.598Z,13.23
2018-05-03T23:25:48.320Z,14.20
2018-05-03T23:29:51.859Z,13.07
2018-05-03T23:33:54.760Z,13.67
2018-05-03T23:37:57.494Z,14.40
2018-05-03T23:42:00.292Z,13.30
2018-05-03T23:46:03.049Z,12.50
2018-05-03T23:50:05.899Z,10.57
2018-05-03T23:54:08.701Z,13.07
2018-05-03T23:58:11.652Z,14.77
